Briefing drone pour Conques-sur-orbiel

Rechercher une autre localisation

Conditions de vol :


Nous sommes le : Mercredi 24 avril 2024
Il est 19:29 UTC (21:29 LT)

Lever de soleil : 04:26 UTC (06:26 LT)
Coucher de soleil : 19:10 UTC (21:10 LT)

Météo

L'essentiel des conditions de vol

VIGILANCE MÉTÉO FRANCE - Aude (11)
Pas de vigilances particulieres
METAR de LFMK
LFMK 241900Z AUTO 27012KT 230V300 9999 -RADZ FEW019 SCT036 BKN046 09/07 Q1015

Date d'émission: 24/04/2024
Heure d'émission: 19:00 UTC
Vent: 270° (variable du 230° au 300°) pour 12 KT (22 km/h)
Visibilité horizontale: > 10 km
Plafond :
- Peu de nuages à 1900ft (579m)
- Nuages épars à 3600ft (1097m)
- Nuages morcelés à 4600ft (1402m)
Température: 9 °C
Point de rosée: 7 °C
Humidité: 87%
Pression (QNH): 1015 hPa
TAF de LFMK
LFMK 241758Z 2418/2515 CNL

Conditions prévues :

Heure d'émission : Bulletin éffectué le 24 à 18:00 UTC
Prévision : Valide du 24 a 18:00 UTC au 25 a 15:00 UTC
Nuages : à 0ft (0 m)
WEBCAM POUR CONQUES-SUR-ORBIEL

Réglementation

Voler en sécurité

CARTES AERONAUTIQUE 1/500.000
CARTE AZBA (Reseau basse altitude)
CARTES VAC (LFMK)
SUP AIP




Chargement des AIP...
NOTAM (CONQUES-SUR-ORBIEL + Terrain à proximité / FIR )




Chargement des NOTAMS...
CONTACT PREFECTURE 11
Aude (11) : [email protected]


Avertissement : Les données mises à disposition sont indicatives. Oxygène Drone ne pourra être tenu responsable de dégâts causés aux biens et aux personnes.